createdAt,value
2023-05-16T00:01:17.000Z,7.75
2023-05-16T00:03:44.608Z,4.40
2023-05-16T00:06:12.152Z,4.90
2023-05-16T00:08:39.804Z,3.97
2023-05-16T00:11:07.256Z,5.47
2023-05-16T00:13:34.734Z,5.47
2023-05-16T00:16:03.078Z,5.43
2023-05-16T00:18:30.635Z,5.55
2023-05-16T00:20:58.338Z,3.35
2023-05-16T00:23:25.873Z,3.53
2023-05-16T00:25:53.182Z,9.18
2023-05-16T00:28:20.470Z,4.00
2023-05-16T00:30:48.479Z,4.50
2023-05-16T00:33:16.048Z,6.25
2023-05-16T00:35:43.835Z,5.80
2023-05-16T00:38:11.136Z,4.07
2023-05-16T00:40:39.593Z,3.58
2023-05-16T00:43:07.017Z,4.18
2023-05-16T00:45:34.379Z,2.63
2023-05-16T00:48:01.809Z,4.15
2023-05-16T00:50:29.472Z,4.65
2023-05-16T00:52:57.327Z,5.13
2023-05-16T00:55:24.917Z,3.65
2023-05-16T00:57:53.108Z,2.83
2023-05-16T01:00:20.847Z,4.93
2023-05-16T01:02:48.764Z,3.85
2023-05-16T01:05:16.503Z,6.03
2023-05-16T01:07:43.974Z,8.15
2023-05-16T01:10:12.134Z,4.50
2023-05-16T01:12:47.042Z,6.30
2023-05-16T01:15:22.193Z,3.70
2023-05-16T01:17:57.881Z,4.22
2023-05-16T01:20:28.770Z,5.82
2023-05-16T01:23:00.632Z,7.22
2023-05-16T01:25:36.117Z,2.85
2023-05-16T01:28:04.653Z,4.05
2023-05-16T01:30:37.664Z,4.65
2023-05-16T01:33:05.498Z,4.15
2023-05-16T01:35:33.595Z,4.13
2023-05-16T01:38:10.360Z,3.58
2023-05-16T01:40:48.779Z,8.23
2023-05-16T01:43:21.295Z,4.32
2023-05-16T01:45:56.317Z,4.82
2023-05-16T01:48:27.800Z,4.05
2023-05-16T01:50:58.127Z,5.47
2023-05-16T01:53:29.867Z,6.13
2023-05-16T01:55:58.957Z,7.43
2023-05-16T01:58:30.929Z,6.97
2023-05-16T02:01:04.164Z,4.80
2023-05-16T02:03:32.462Z,6.75
2023-05-16T02:06:00.194Z,4.88
2023-05-16T02:08:29.905Z,6.93
2023-05-16T02:10:57.406Z,6.05
2023-05-16T02:13:24.715Z,3.10
2023-05-16T02:15:53.333Z,3.65
2023-05-16T02:18:20.925Z,4.68
2023-05-16T02:20:48.461Z,4.25
2023-05-16T02:23:15.960Z,5.28
2023-05-16T02:25:43.233Z,6.18
2023-05-16T02:28:10.565Z,5.18
2023-05-16T02:30:37.987Z,7.93
2023-05-16T02:33:05.485Z,6.75
2023-05-16T02:35:32.786Z,4.05
2023-05-16T02:38:00.173Z,2.05
2023-05-16T02:40:27.507Z,6.90
2023-05-16T02:42:55.007Z,2.63
2023-05-16T02:45:22.472Z,6.93
2023-05-16T02:47:50.094Z,5.78
2023-05-16T02:50:17.403Z,5.78
2023-05-16T02:52:44.852Z,11.00
2023-05-16T02:57:43.500Z,10.77
2023-05-16T03:00:12.356Z,9.35
2023-05-16T03:02:39.783Z,13.63
2023-05-16T03:05:07.681Z,14.27
2023-05-16T03:07:35.162Z,12.82
2023-05-16T03:10:02.541Z,11.95
2023-05-16T03:12:30.174Z,12.15
2023-05-16T03:14:57.569Z,11.27
2023-05-16T03:17:25.162Z,14.95
2023-05-16T03:19:52.765Z,10.90
2023-05-16T03:22:20.119Z,13.40
2023-05-16T03:24:47.651Z,11.70
2023-05-16T03:27:15.159Z,8.75
2023-05-16T03:29:42.596Z,13.73
2023-05-16T03:32:12.270Z,10.90
2023-05-16T03:34:39.712Z,7.32
2023-05-16T03:37:07.372Z,7.20
2023-05-16T03:39:34.734Z,7.03
2023-05-16T03:42:02.115Z,6.95
2023-05-16T03:44:29.592Z,8.27
2023-05-16T03:46:57.051Z,8.52
2023-05-16T03:49:28.938Z,6.32
2023-05-16T03:51:56.359Z,7.78
2023-05-16T03:54:23.721Z,6.65
2023-05-16T03:56:51.213Z,9.40
2023-05-16T03:59:18.691Z,5.88
2023-05-16T04:01:45.975Z,6.60
2023-05-16T04:04:13.337Z,5.15
2023-05-16T04:06:40.929Z,5.40
2023-05-16T04:09:08.350Z,5.15
2023-05-16T04:11:35.973Z,3.58
2023-05-16T04:14:03.460Z,5.60
2023-05-16T04:16:30.922Z,4.78
2023-05-16T04:18:59.766Z,3.13
2023-05-16T04:21:27.298Z,6.50
2023-05-16T04:23:54.732Z,7.65
2023-05-16T04:26:23.184Z,6.90
2023-05-16T04:28:50.749Z,3.20
2023-05-16T04:31:18.652Z,3.65
2023-05-16T04:33:46.469Z,7.40
2023-05-16T04:36:14.061Z,8.25
2023-05-16T04:38:42.264Z,4.78
2023-05-16T04:41:09.601Z,6.10
2023-05-16T04:43:37.010Z,3.20
2023-05-16T04:46:04.661Z,2.80
2023-05-16T04:48:32.606Z,4.60
2023-05-16T04:51:00.224Z,8.55
2023-05-16T04:53:27.811Z,7.65
2023-05-16T04:55:55.518Z,4.43
2023-05-16T04:58:24.588Z,5.15
2023-05-16T05:00:52.890Z,6.82
2023-05-16T05:03:20.305Z,6.32
2023-05-16T05:05:48.314Z,4.47
2023-05-16T05:08:15.977Z,5.88
2023-05-16T05:10:43.330Z,6.15
2023-05-16T05:13:12.184Z,5.90
2023-05-16T05:15:39.514Z,5.13
2023-05-16T05:18:07.087Z,5.45
2023-05-16T05:20:34.713Z,5.50
2023-05-16T05:23:02.035Z,7.20
2023-05-16T05:25:29.546Z,5.78
2023-05-16T05:27:56.950Z,8.88
2023-05-16T05:30:24.477Z,6.95
2023-05-16T05:32:52.077Z,9.23
2023-05-16T05:35:19.410Z,10.88
2023-05-16T05:37:46.840Z,4.72
2023-05-16T05:40:14.550Z,5.10
2023-05-16T05:42:43.579Z,7.75
2023-05-16T05:45:12.220Z,7.40
2023-05-16T05:47:39.787Z,5.10
2023-05-16T05:50:08.833Z,5.05
2023-05-16T05:52:36.155Z,6.30
2023-05-16T05:55:03.655Z,7.55
2023-05-16T05:57:31.169Z,9.77
2023-05-16T05:59:58.546Z,10.20
2023-05-16T06:02:26.197Z,11.77
2023-05-16T06:04:53.792Z,5.93
2023-05-16T06:07:21.353Z,9.65
2023-05-16T06:09:48.723Z,6.57
2023-05-16T06:12:16.287Z,6.20
2023-05-16T06:14:43.639Z,4.60
2023-05-16T06:17:11.113Z,7.35
2023-05-16T06:19:38.553Z,4.85
2023-05-16T06:22:06.331Z,8.18
2023-05-16T06:24:33.816Z,7.53
2023-05-16T06:27:01.285Z,4.70
2023-05-16T06:29:28.779Z,12.15
2023-05-16T06:31:56.264Z,6.35
2023-05-16T06:34:28.621Z,14.05
2023-05-16T06:36:56.228Z,6.05
2023-05-16T06:39:23.556Z,7.90
2023-05-16T06:41:51.247Z,5.00
2023-05-16T06:44:18.701Z,8.30
2023-05-16T06:46:46.497Z,4.32
2023-05-16T06:49:14.531Z,5.70
2023-05-16T06:51:41.980Z,6.85
2023-05-16T06:54:09.427Z,9.63
2023-05-16T06:56:36.860Z,3.05
2023-05-16T06:59:04.837Z,6.45
2023-05-16T07:01:32.453Z,4.60
2023-05-16T07:04:00.219Z,5.07
2023-05-16T07:06:27.817Z,2.20
2023-05-16T07:08:56.010Z,2.92
2023-05-16T07:11:23.385Z,10.27
2023-05-16T07:13:50.970Z,6.80
2023-05-16T07:16:19.113Z,6.22
2023-05-16T07:18:47.705Z,8.20
2023-05-16T07:21:24.008Z,6.55
2023-05-16T07:23:51.643Z,2.70
2023-05-16T07:26:19.580Z,6.00
2023-05-16T07:28:47.032Z,10.48
2023-05-16T07:31:18.923Z,4.13
2023-05-16T07:33:49.777Z,5.73
2023-05-16T07:37:03.202Z,9.00
2023-05-16T07:40:45.400Z,8.00
2023-05-16T07:43:49.670Z,8.63
2023-05-16T07:46:58.504Z,8.30
2023-05-16T07:50:03.252Z,8.18
2023-05-16T07:52:52.651Z,6.13
2023-05-16T07:55:20.544Z,4.75
2023-05-16T07:57:48.722Z,4.10
2023-05-16T08:00:17.401Z,5.95
2023-05-16T08:02:45.649Z,7.35
2023-05-16T08:05:13.755Z,6.43
2023-05-16T08:07:42.170Z,6.45
2023-05-16T08:10:13.115Z,5.40
2023-05-16T08:12:41.397Z,6.28
2023-05-16T08:15:10.479Z,7.13
2023-05-16T08:17:39.059Z,3.90
2023-05-16T08:20:07.855Z,7.25
2023-05-16T08:22:35.701Z,9.43
2023-05-16T08:25:03.637Z,4.25
2023-05-16T08:27:31.376Z,5.15
2023-05-16T08:29:59.211Z,3.70
2023-05-16T08:32:27.167Z,3.95
2023-05-16T08:34:55.050Z,4.93
2023-05-16T08:37:22.904Z,3.58
2023-05-16T08:39:50.501Z,4.65
2023-05-16T08:42:18.579Z,2.58
2023-05-16T08:44:46.561Z,4.97
2023-05-16T08:47:22.204Z,2.55
2023-05-16T08:49:52.724Z,5.20
2023-05-16T08:52:22.588Z,6.88
2023-05-16T08:55:09.284Z,6.65
2023-05-16T08:57:39.607Z,3.85
2023-05-16T09:00:14.289Z,2.63
2023-05-16T09:02:43.005Z,7.50
2023-05-16T09:05:13.739Z,3.80
2023-05-16T09:07:42.678Z,6.40
2023-05-16T09:10:11.702Z,5.72
2023-05-16T09:12:40.716Z,4.57
2023-05-16T09:15:11.355Z,7.53
2023-05-16T09:17:43.274Z,4.70
2023-05-16T09:20:13.521Z,5.75
2023-05-16T09:22:50.038Z,7.80
2023-05-16T09:25:28.385Z,6.72
2023-05-16T09:27:59.265Z,5.45
2023-05-16T09:30:31.665Z,6.80
2023-05-16T09:33:05.386Z,3.97
2023-05-16T09:38:18.677Z,7.38
2023-05-16T09:40:46.973Z,5.70
2023-05-16T09:43:17.619Z,3.47
2023-05-16T09:45:49.784Z,8.15
2023-05-16T09:48:18.557Z,6.57
2023-05-16T09:50:53.433Z,5.15
2023-05-16T09:53:27.974Z,4.35
2023-05-16T09:56:02.645Z,6.13
2023-05-16T09:58:33.604Z,2.95
2023-05-16T10:01:01.477Z,5.60
2023-05-16T10:03:29.731Z,2.20
2023-05-16T10:06:03.226Z,5.07
2023-05-16T10:08:33.556Z,5.65
2023-05-16T10:11:01.069Z,2.42
2023-05-16T10:13:31.782Z,4.82
2023-05-16T10:16:12.082Z,2.35
2023-05-16T10:18:42.584Z,3.33
2023-05-16T10:21:15.064Z,5.03
2023-05-16T10:23:44.291Z,1.98
2023-05-16T10:26:14.484Z,3.28
2023-05-16T10:28:42.601Z,5.97
2023-05-16T10:31:11.956Z,7.25
2023-05-16T10:33:41.311Z,3.63
2023-05-16T10:36:10.534Z,2.88
2023-05-16T10:38:42.826Z,1.38
2023-05-16T10:41:11.303Z,4.32
2023-05-16T10:43:40.991Z,3.20
2023-05-16T10:46:14.984Z,5.50
2023-05-16T10:48:43.576Z,4.22
2023-05-16T10:51:17.175Z,5.00
2023-05-16T10:53:45.592Z,1.60
2023-05-16T10:56:12.957Z,6.00
2023-05-16T10:58:42.913Z,5.35
2023-05-16T11:01:16.641Z,2.47
2023-05-16T11:03:50.456Z,2.53
2023-05-16T11:06:24.914Z,4.47
2023-05-16T11:08:58.844Z,3.78
2023-05-16T11:11:32.538Z,2.60
2023-05-16T11:14:03.928Z,3.20
2023-05-16T11:16:31.647Z,2.90
2023-05-16T11:19:05.545Z,3.08
2023-05-16T11:21:39.511Z,3.80
2023-05-16T11:24:13.231Z,3.55
2023-05-16T11:26:40.824Z,1.77
2023-05-16T11:29:09.328Z,3.08
2023-05-16T11:31:37.102Z,3.42
2023-05-16T11:34:04.551Z,2.33
2023-05-16T11:36:32.793Z,6.65
2023-05-16T11:39:09.931Z,2.45
2023-05-16T11:41:37.426Z,3.63
2023-05-16T11:44:06.330Z,3.67
2023-05-16T11:46:35.276Z,2.03
2023-05-16T11:49:05.074Z,3.78
2023-05-16T11:51:32.632Z,3.10
2023-05-16T11:53:59.950Z,4.82
2023-05-16T11:56:27.936Z,3.28
2023-05-16T11:58:55.564Z,3.88
2023-05-16T12:01:23.477Z,5.75
2023-05-16T12:03:55.963Z,3.63
2023-05-16T12:06:23.715Z,13.10
2023-05-16T12:08:52.204Z,3.65
2023-05-16T12:11:19.500Z,10.10
2023-05-16T12:13:47.118Z,4.50
2023-05-16T12:16:14.886Z,2.92
2023-05-16T12:18:43.696Z,3.38
2023-05-16T12:21:11.615Z,2.10
2023-05-16T12:23:40.281Z,6.65
2023-05-16T12:26:08.844Z,2.88
2023-05-16T12:28:37.023Z,3.72
2023-05-16T12:31:04.274Z,3.95
2023-05-16T12:33:31.659Z,2.97
2023-05-16T12:36:02.094Z,3.25
2023-05-16T12:38:29.395Z,3.00
2023-05-16T12:40:59.621Z,6.22
2023-05-16T12:43:26.831Z,13.20
2023-05-16T12:45:56.348Z,3.78
2023-05-16T12:48:24.934Z,2.47
2023-05-16T12:50:52.469Z,16.92
2023-05-16T12:53:19.945Z,21.58
2023-05-16T12:55:48.389Z,8.45
2023-05-16T12:58:16.856Z,18.30
2023-05-16T13:00:44.270Z,5.95
2023-05-16T13:03:12.680Z,2.65
2023-05-16T13:05:39.955Z,3.95
2023-05-16T13:08:07.749Z,8.57
2023-05-16T13:10:34.933Z,3.63
2023-05-16T13:13:02.131Z,5.60
2023-05-16T13:15:29.847Z,4.72
2023-05-16T13:17:57.378Z,5.43
2023-05-16T13:20:25.100Z,5.72
2023-05-16T13:22:52.531Z,10.73
2023-05-16T13:25:19.741Z,3.42
2023-05-16T13:27:46.854Z,3.45
2023-05-16T13:30:14.199Z,3.53
2023-05-16T13:32:42.250Z,6.30
2023-05-16T13:35:10.701Z,2.75
2023-05-16T13:37:38.358Z,4.07
2023-05-16T13:40:08.939Z,6.10
2023-05-16T13:42:37.563Z,5.13
2023-05-16T13:45:09.217Z,3.92
2023-05-16T13:47:37.170Z,4.88
2023-05-16T13:50:08.331Z,4.63
2023-05-16T13:52:37.725Z,5.03
2023-05-16T13:55:05.982Z,4.20
2023-05-16T13:57:33.888Z,5.13
2023-05-16T14:00:24.896Z,4.43
2023-05-16T14:02:48.815Z,4.60
2023-05-16T14:05:16.291Z,4.65
2023-05-16T14:07:45.462Z,5.07
2023-05-16T14:10:14.204Z,4.63
2023-05-16T14:12:41.758Z,3.03
2023-05-16T14:15:10.000Z,4.32
2023-05-16T14:17:37.566Z,4.82
2023-05-16T14:20:09.900Z,7.10
2023-05-16T14:22:39.604Z,4.35
2023-05-16T14:25:07.808Z,4.53
2023-05-16T14:27:35.174Z,4.43
2023-05-16T14:30:02.682Z,4.38
2023-05-16T14:32:29.957Z,4.78
2023-05-16T14:34:57.334Z,4.75
2023-05-16T14:37:24.602Z,4.18
2023-05-16T14:39:53.403Z,6.72
2023-05-16T14:42:20.728Z,5.20
2023-05-16T14:44:47.969Z,3.85
2023-05-16T14:47:15.285Z,5.45
2023-05-16T14:49:42.504Z,5.75
2023-05-16T14:52:09.761Z,3.10
2023-05-16T14:54:37.393Z,5.22
2023-05-16T14:57:05.536Z,6.80
2023-05-16T14:59:32.712Z,4.13
2023-05-16T15:02:00.354Z,4.00
2023-05-16T15:04:28.963Z,5.45
2023-05-16T15:06:56.314Z,3.42
2023-05-16T15:09:23.557Z,4.15
2023-05-16T15:11:50.857Z,6.45
2023-05-16T15:14:18.347Z,6.68
2023-05-16T15:16:47.976Z,4.90
2023-05-16T15:19:15.418Z,4.63
2023-05-16T15:21:42.800Z,9.18
2023-05-16T15:24:11.291Z,8.02
2023-05-16T15:26:39.853Z,9.10
2023-05-16T15:29:07.504Z,7.78
2023-05-16T15:31:34.857Z,5.53
2023-05-16T15:34:02.371Z,6.95
2023-05-16T15:36:29.952Z,6.55
2023-05-16T15:38:57.345Z,10.95
2023-05-16T15:41:50.123Z,8.90
2023-05-16T15:44:14.892Z,9.25
2023-05-16T15:46:42.748Z,8.88
2023-05-16T15:49:10.082Z,7.65
2023-05-16T15:51:37.343Z,6.82
2023-05-16T15:54:04.760Z,7.60
2023-05-16T15:56:32.924Z,7.03
2023-05-16T15:59:00.305Z,7.60
2023-05-16T16:01:27.695Z,9.13
2023-05-16T16:03:55.168Z,9.13
2023-05-16T16:06:23.323Z,8.35
2023-05-16T16:08:51.171Z,6.88
2023-05-16T16:11:23.174Z,10.90
2023-05-16T16:13:50.503Z,6.90
2023-05-16T16:16:18.434Z,7.47
2023-05-16T16:18:46.417Z,8.50
2023-05-16T16:21:13.935Z,8.10
2023-05-16T16:23:41.987Z,10.80
2023-05-16T16:26:09.758Z,8.07
2023-05-16T16:28:37.202Z,7.47
2023-05-16T16:31:04.946Z,11.10
2023-05-16T16:33:32.625Z,7.50
2023-05-16T16:36:00.048Z,8.25
2023-05-16T16:38:27.465Z,7.47
2023-05-16T16:40:54.911Z,8.43
2023-05-16T16:43:22.352Z,9.43
2023-05-16T16:45:50.146Z,8.57
2023-05-16T16:48:17.761Z,12.68
2023-05-16T16:50:45.502Z,7.97
2023-05-16T16:53:14.388Z,9.63
2023-05-16T16:55:42.007Z,7.13
2023-05-16T16:58:09.551Z,9.65
2023-05-16T17:00:37.013Z,9.40
2023-05-16T17:03:05.427Z,9.25
2023-05-16T17:05:33.266Z,11.38
2023-05-16T17:08:00.608Z,7.20
2023-05-16T17:10:27.982Z,5.45
2023-05-16T17:12:55.395Z,5.20
2023-05-16T17:15:22.782Z,7.00
2023-05-16T17:17:50.566Z,5.53
2023-05-16T17:20:17.977Z,9.90
2023-05-16T17:22:46.512Z,8.10
2023-05-16T17:25:13.718Z,9.77
2023-05-16T17:27:41.518Z,9.35
2023-05-16T17:30:10.897Z,9.57
2023-05-16T17:32:38.386Z,13.65
2023-05-16T17:35:06.673Z,5.93
2023-05-16T17:37:33.853Z,9.65
2023-05-16T17:40:01.039Z,7.70
2023-05-16T17:42:28.429Z,7.63
2023-05-16T17:44:55.935Z,6.78
2023-05-16T17:47:23.581Z,7.28
2023-05-16T17:49:50.928Z,7.13
2023-05-16T17:52:20.457Z,7.85
2023-05-16T17:54:47.758Z,7.13
2023-05-16T17:57:15.642Z,7.55
2023-05-16T17:59:42.868Z,6.13
2023-05-16T18:02:10.681Z,9.90
2023-05-16T18:04:38.398Z,14.60
2023-05-16T18:07:05.794Z,8.60
2023-05-16T18:09:32.972Z,6.00
2023-05-16T18:12:01.716Z,7.50
2023-05-16T18:14:28.967Z,7.57
2023-05-16T18:16:56.292Z,9.32
2023-05-16T18:19:24.295Z,8.93
2023-05-16T18:21:52.085Z,6.25
2023-05-16T18:24:19.320Z,8.50
2023-05-16T18:26:48.801Z,7.90
2023-05-16T18:29:16.323Z,7.85
2023-05-16T18:31:43.611Z,10.68
2023-05-16T18:34:10.861Z,9.77
2023-05-16T18:36:39.008Z,7.18
2023-05-16T18:39:06.652Z,6.93
2023-05-16T18:41:33.910Z,11.43
2023-05-16T18:44:01.161Z,7.72
2023-05-16T18:46:28.450Z,8.18
2023-05-16T18:48:58.204Z,7.78
2023-05-16T18:51:25.681Z,9.40
2023-05-16T18:53:53.220Z,8.23
2023-05-16T18:56:20.499Z,9.40
2023-05-16T18:58:48.230Z,6.43
2023-05-16T19:01:15.571Z,5.78
2023-05-16T19:03:43.015Z,10.00
2023-05-16T19:06:10.430Z,9.00
2023-05-16T19:08:47.446Z,7.45
2023-05-16T19:11:16.496Z,9.05
2023-05-16T19:13:44.168Z,7.05
2023-05-16T19:16:11.503Z,11.55
2023-05-16T19:18:39.132Z,10.85
2023-05-16T19:21:08.125Z,8.75
2023-05-16T19:23:35.409Z,11.73
2023-05-16T19:26:02.567Z,5.22
2023-05-16T19:28:30.418Z,9.50
2023-05-16T19:30:58.447Z,8.55
2023-05-16T19:33:25.649Z,8.88
2023-05-16T19:35:53.952Z,11.98
2023-05-16T19:38:22.710Z,10.00
2023-05-16T19:40:49.942Z,12.23
2023-05-16T19:43:17.491Z,9.32
2023-05-16T19:45:44.683Z,12.23
2023-05-16T19:48:11.967Z,7.13
2023-05-16T19:50:39.237Z,13.80
2023-05-16T19:53:06.401Z,11.43
2023-05-16T19:55:37.169Z,8.50
2023-05-16T19:58:05.571Z,14.68
2023-05-16T20:00:32.928Z,10.40
2023-05-16T20:03:00.319Z,10.25
2023-05-16T20:05:28.744Z,5.97
2023-05-16T20:07:56.581Z,9.23
2023-05-16T20:10:24.093Z,9.20
2023-05-16T20:12:51.760Z,7.43
2023-05-16T20:15:19.239Z,19.55
2023-05-16T20:17:46.610Z,11.25
2023-05-16T20:20:14.089Z,7.63
2023-05-16T20:22:42.150Z,8.93
2023-05-16T20:25:10.919Z,11.25
2023-05-16T20:27:38.519Z,11.65
2023-05-16T20:30:07.368Z,12.15
2023-05-16T20:32:34.943Z,10.95
2023-05-16T20:35:05.247Z,11.10
2023-05-16T20:37:32.526Z,14.57
2023-05-16T20:39:59.680Z,10.50
2023-05-16T20:42:27.002Z,8.88
2023-05-16T20:44:54.197Z,13.25
2023-05-16T20:47:21.815Z,9.65
2023-05-16T20:49:49.070Z,10.60
2023-05-16T20:52:16.469Z,9.15
2023-05-16T20:54:43.671Z,9.00
2023-05-16T20:57:11.082Z,8.45
2023-05-16T20:59:38.344Z,9.48
2023-05-16T21:02:09.987Z,12.10
2023-05-16T21:04:38.377Z,9.85
2023-05-16T21:07:08.445Z,7.05
2023-05-16T21:09:37.256Z,8.55
2023-05-16T21:12:05.139Z,10.35
2023-05-16T21:14:32.258Z,10.95
2023-05-16T21:16:59.419Z,12.82
2023-05-16T21:19:26.953Z,10.60
2023-05-16T21:21:54.230Z,7.20
2023-05-16T21:24:21.443Z,8.80
2023-05-16T21:26:48.672Z,12.15
2023-05-16T21:29:15.824Z,13.75
2023-05-16T21:31:43.135Z,13.68
2023-05-16T21:34:10.525Z,12.70
2023-05-16T21:36:37.772Z,12.73
2023-05-16T21:39:04.928Z,10.05
2023-05-16T21:41:32.131Z,10.90
2023-05-16T21:43:59.314Z,11.07
2023-05-16T21:46:26.759Z,12.75
2023-05-16T21:48:53.966Z,11.43
2023-05-16T21:51:21.190Z,9.40
2023-05-16T21:53:48.384Z,16.85
2023-05-16T21:56:15.623Z,13.90
2023-05-16T21:58:42.922Z,12.38
2023-05-16T22:01:10.578Z,9.27
2023-05-16T22:03:37.789Z,13.13
2023-05-16T22:06:05.308Z,16.20
2023-05-16T22:08:32.593Z,9.25
2023-05-16T22:10:59.784Z,12.75
2023-05-16T22:23:49.628Z,17.35
2023-05-16T22:26:16.955Z,14.93
2023-05-16T22:28:44.220Z,11.45
2023-05-16T22:31:11.573Z,16.15
2023-05-16T22:33:38.993Z,14.20
2023-05-16T22:36:07.060Z,13.73
2023-05-16T22:38:35.062Z,14.40
2023-05-16T22:41:02.634Z,13.95
2023-05-16T22:43:29.875Z,12.68
2023-05-16T22:45:57.152Z,15.98
2023-05-16T22:48:24.591Z,11.77
2023-05-16T22:50:51.931Z,12.18
2023-05-16T22:53:19.185Z,13.68
2023-05-16T22:55:46.668Z,13.88
2023-05-16T22:58:13.919Z,10.60
2023-05-16T23:00:41.148Z,14.85
2023-05-16T23:03:08.551Z,11.32
2023-05-16T23:05:36.260Z,11.43
2023-05-16T23:08:04.749Z,11.60
2023-05-16T23:10:32.729Z,14.07
2023-05-16T23:12:59.916Z,14.82
2023-05-16T23:15:27.385Z,11.23
2023-05-16T23:17:54.975Z,11.27
2023-05-16T23:20:22.834Z,13.73
2023-05-16T23:22:50.074Z,9.10
2023-05-16T23:25:17.356Z,11.65
2023-05-16T23:27:44.620Z,14.02
2023-05-16T23:30:12.350Z,13.27
2023-05-16T23:32:39.629Z,14.80
2023-05-16T23:35:07.603Z,11.10
2023-05-16T23:37:34.788Z,16.15
2023-05-16T23:40:02.006Z,12.60
2023-05-16T23:42:29.220Z,14.27
2023-05-16T23:44:56.527Z,21.98
2023-05-16T23:47:23.866Z,15.75
2023-05-16T23:49:51.144Z,12.13
2023-05-16T23:52:18.329Z,11.38
2023-05-16T23:54:46.004Z,14.80
2023-05-16T23:57:13.371Z,11.82
2023-05-16T23:59:41.439Z,9.52
